Time;durP1;ratioP1;P1;durP2;ratioP2;P2;SDS_P1;SDS_P2;PMS_P1;PMS_P2;Temp;Humidity;BMP_temperature;BMP_pressure;BME280_temperature;BME280_humidity;BME280_pressure;Samples;Min_cycle;Max_cycle;Signal;HPM_P1;HPM_P2
2022/04/19 00:00:27;;;;;;;;;;;;;;;21.43;24.61;97414.97;5058358;28;1003;-77
2022/04/19 00:02:53;;;;;;;;;;;;;;;21.19;24.88;97406.88;5057888;28;1620;-77
2022/04/19 00:05:18;;;;;;;;;;;;;;;21.62;24.49;97416.72;5057980;28;919;-75
2022/04/19 00:07:44;;;;;;;;;;;;;;;21.99;23.92;97406.44;5057601;28;1898;-76
2022/04/19 00:10:10;;;;;;;;;;;;;;;21.68;24.13;97409.22;5057593;28;879;-76
2022/04/19 00:12:36;;;;;;;;;;;;;;;21.29;24.72;97394.38;5057878;28;1188;-77
2022/04/19 00:15:02;;;;;;;;;;;;;;;21.23;24.44;97404.69;5057490;28;936;-76
2022/04/19 00:17:27;;;;;;;;;;;;;;;21.17;25.21;97403.69;5058105;28;1141;-77
2022/04/19 00:19:53;;;;;;;;;;;;;;;21.89;23.83;97401.97;5057369;28;965;-76
2022/04/19 00:22:19;;;;;;;;;;;;;;;22.10;23.72;97403.22;5057866;28;1126;-77
2022/04/19 00:24:44;;;;;;;;;;;;;;;21.56;24.38;97402.38;5057395;28;1006;-76
2022/04/19 00:27:09;;;;;;;;;;;;;;;21.42;24.20;97402.09;5057924;28;1906;-77
2022/04/19 00:29:35;;;;;;;;;;;;;;;21.12;25.03;97395.78;5089993;28;1130;-77
2022/04/19 00:32:01;;;;;;;;;;;;;;;21.62;24.21;97399.72;5058147;28;985;-76
2022/04/19 00:34:27;;;;;;;;;;;;;;;21.84;23.89;97394.84;5056349;28;1156;-76
2022/04/19 00:36:52;;;;;;;;;;;;;;;21.68;23.89;97392.22;5057016;28;1465;-74
2022/04/19 00:39:18;;;;;;;;;;;;;;;21.42;24.49;97397.22;5055863;28;985;-77
2022/04/19 00:41:43;;;;;;;;;;;;;;;21.24;24.93;97391.34;5056193;28;1120;-77
2022/04/19 00:44:09;;;;;;;;;;;;;;;21.61;24.59;97386.84;5056876;28;1294;-76
2022/04/19 00:46:34;;;;;;;;;;;;;;;22.26;23.53;97386.00;5057545;28;1902;-75
2022/04/19 00:49:00;;;;;;;;;;;;;;;21.63;24.33;97389.97;5057291;28;1040;-76
2022/04/19 00:51:25;;;;;;;;;;;;;;;21.34;24.67;97387.38;5056199;28;1307;-77
2022/04/19 00:53:51;;;;;;;;;;;;;;;21.19;24.94;97384.25;5056699;28;1091;-76
2022/04/19 00:56:17;;;;;;;;;;;;;;;21.57;24.69;97386.16;5072628;28;1180;-74
2022/04/19 00:58:43;;;;;;;;;;;;;;;22.00;23.80;97384.56;5056668;28;1022;-77
2022/04/19 01:01:09;;;;;;;;;;;;;;;21.88;23.66;97377.75;5056717;28;1222;-76
2022/04/19 01:03:37;;;;;;;;;;;;;;;21.57;24.47;97374.84;5055441;28;1209;-77
2022/04/19 01:06:09;;;;;;;;;;;;;;;21.38;24.49;97373.09;5056381;28;1155;-76
2022/04/19 01:08:36;;;;;;;;;;;;;;;21.35;24.58;97379.66;5056306;28;1985;-76
2022/04/19 01:13:55;;;;;;;;;;;;;;;21.12;25.01;97373.16;5055626;28;1130;-76
2022/04/19 01:16:23;;;;;;;;;;;;;;;21.35;24.87;97374.00;5072172;28;1125;-76
2022/04/19 01:18:48;;;;;;;;;;;;;;;21.50;24.62;97375.91;5054226;28;1078;-76
2022/04/19 01:21:14;;;;;;;;;;;;;;;21.78;24.35;97362.72;5055681;28;1507;-77
2022/04/19 01:23:39;;;;;;;;;;;;;;;21.87;24.18;97355.56;5054891;28;1623;-77
2022/04/19 01:26:07;;;;;;;;;;;;;;;21.46;24.63;97369.56;5072524;28;1081;-77
2022/04/19 01:28:34;;;;;;;;;;;;;;;21.24;24.57;97363.84;5054480;28;1990;-76
2022/04/19 01:31:01;;;;;;;;;;;;;;;21.22;25.06;97360.69;5072364;28;1202;-75
2022/04/19 01:33:37;;;;;;;;;;;;;;;21.46;24.59;97360.28;5069974;28;1117;-77
2022/04/19 01:36:05;;;;;;;;;;;;;;;21.83;24.08;97364.97;5055669;28;1220;-76
2022/04/19 01:38:30;;;;;;;;;;;;;;;21.63;24.24;97367.34;5056181;28;979;-77
2022/04/19 01:40:56;;;;;;;;;;;;;;;21.28;24.66;97364.50;5056967;28;955;-77
2022/04/19 01:43:41;;;;;;;;;;;;;;;21.19;24.88;97370.09;5054760;28;1141;-76
2022/04/19 01:46:07;;;;;;;;;;;;;;;21.21;24.92;97366.81;5054904;28;1547;-76
2022/04/19 01:48:32;;;;;;;;;;;;;;;21.76;24.13;97370.91;5055771;28;1909;-76
2022/04/19 01:50:58;;;;;;;;;;;;;;;22.02;24.03;97365.06;5094180;28;1044;-76
2022/04/19 01:53:24;;;;;;;;;;;;;;;21.84;24.05;97366.53;5076332;28;1229;-76
2022/04/19 01:55:53;;;;;;;;;;;;;;;21.36;24.87;97364.31;5092968;28;1406;-76
2022/04/19 01:58:37;;;;;;;;;;;;;;;21.16;24.82;97368.19;5092940;28;962;-75
2022/04/19 02:01:05;;;;;;;;;;;;;;;21.23;25.09;97367.13;5076616;28;1113;-76
2022/04/19 02:03:31;;;;;;;;;;;;;;;21.71;24.29;97368.66;5075935;28;1268;-77
2022/04/19 02:05:56;;;;;;;;;;;;;;;21.99;24.04;97366.00;5093653;28;990;-74
2022/04/19 02:08:23;;;;;;;;;;;;;;;21.68;24.00;97366.75;5093322;28;1913;-75
2022/04/19 02:10:49;;;;;;;;;;;;;;;21.44;24.28;97368.44;5076596;28;1118;-77
2022/04/19 02:13:14;;;;;;;;;;;;;;;21.27;24.60;97368.59;5076217;28;1353;-77
2022/04/19 02:16:09;;;;;;;;;;;;;;;21.52;24.41;97376.22;5073791;28;993;-76
2022/04/19 02:18:36;;;;;;;;;;;;;;;21.79;24.03;97380.50;5056108;28;1265;-75
2022/04/19 02:21:02;;;;;;;;;;;;;;;21.93;23.93;97382.03;5030889;28;1149;-76
2022/04/19 02:23:27;;;;;;;;;;;;;;;21.45;24.73;97381.34;5012969;28;1077;-75
2022/04/19 02:25:55;;;;;;;;;;;;;;;21.39;24.76;97386.78;5013758;28;1159;-75
2022/04/19 02:28:21;;;;;;;;;;;;;;;21.35;24.89;97379.66;5013134;28;1918;-74
2022/04/19 02:30:58;;;;;;;;;;;;;;;21.73;24.10;97383.16;5020325;28;1298;-76
2022/04/19 02:33:28;;;;;;;;;;;;;;;22.01;23.99;97389.78;5019510;28;1124;-77
2022/04/19 02:35:55;;;;;;;;;;;;;;;21.54;24.25;97389.91;5020294;28;1485;-76
2022/04/19 02:38:22;;;;;;;;;;;;;;;21.31;24.76;97403.25;5039066;28;1462;-77
2022/04/19 02:40:48;;;;;;;;;;;;;;;21.26;24.63;97395.31;5040024;28;1127;-76
2022/04/19 02:43:16;;;;;;;;;;;;;;;21.65;24.52;97398.78;5039313;28;1215;-75
2022/04/19 02:45:44;;;;;;;;;;;;;;;22.01;23.90;97403.94;5039922;28;1468;-77
2022/04/19 02:48:12;;;;;;;;;;;;;;;21.84;23.68;97406.19;5019260;28;1977;-76
2022/04/19 02:50:44;;;;;;;;;;;;;;;21.42;24.54;97408.53;5000124;28;1172;-77
2022/04/19 02:53:09;;;;;;;;;;;;;;;21.27;24.69;97411.03;4999714;28;1150;-77
2022/04/19 02:55:37;;;;;;;;;;;;;;;21.17;24.89;97415.00;4961347;28;1187;-77
2022/04/19 02:58:02;;;;;;;;;;;;;;;21.82;23.82;97414.38;4960731;28;1175;-77
2022/04/19 03:00:28;;;;;;;;;;;;;;;22.02;23.80;97422.53;5000024;28;1258;-76
2022/04/19 03:02:54;;;;;;;;;;;;;;;21.63;23.96;97426.00;4944864;28;1458;-76
2022/04/19 03:05:19;;;;;;;;;;;;;;;21.43;24.32;97426.28;4941511;29;1270;-77
2022/04/19 03:07:45;;;;;;;;;;;;;;;21.29;24.70;97428.34;4925779;29;1911;-76
2022/04/19 03:10:10;;;;;;;;;;;;;;;21.54;24.63;97432.38;4909745;29;1520;-75
2022/04/19 03:12:36;;;;;;;;;;;;;;;21.77;23.96;97429.13;4922820;29;1073;-77
2022/04/19 03:15:11;;;;;;;;;;;;;;;22.11;23.46;97435.97;4960396;28;1076;-76
2022/04/19 03:17:38;;;;;;;;;;;;;;;21.59;24.12;97434.63;4961099;28;1097;-75
2022/04/19 03:20:04;;;;;;;;;;;;;;;21.25;24.43;97439.00;4960416;28;1113;-76
2022/04/19 03:27:41;;;;;;;;;;;;;;;21.27;24.62;97442.16;4929354;28;1245;-76
2022/04/19 03:28:00;;;;;;;;;;;;;;;21.96;23.68;97440.56;5002683;28;1903;-77
2022/04/19 03:30:25;;;;;;;;;;;;;;;21.78;23.79;97439.19;5018098;28;1308;-76
2022/04/19 03:32:53;;;;;;;;;;;;;;;21.43;24.51;97431.97;5000773;28;1210;-76
2022/04/19 03:35:19;;;;;;;;;;;;;;;21.20;24.49;97441.63;5019868;28;1079;-77
2022/04/19 03:37:44;;;;;;;;;;;;;;;21.30;24.71;97441.28;5022526;28;1216;-76
2022/04/19 03:40:10;;;;;;;;;;;;;;;21.68;24.01;97431.88;5021589;28;1334;-77
2022/04/19 03:42:35;;;;;;;;;;;;;;;21.90;23.99;97431.09;5035541;28;990;-75
2022/04/19 03:45:01;;;;;;;;;;;;;;;21.54;23.98;97436.00;5035775;28;1201;-76
2022/04/19 03:47:27;;;;;;;;;;;;;;;21.32;24.62;97438.78;5058921;28;2008;-77
2022/04/19 03:49:52;;;;;;;;;;;;;;;21.29;24.72;97431.16;5075353;28;1164;-76
2022/04/19 03:52:18;;;;;;;;;;;;;;;21.35;24.82;97431.44;5076006;28;1035;-77
2022/04/19 03:54:46;;;;;;;;;;;;;;;21.81;24.12;97437.47;5058705;28;1126;-77
2022/04/19 03:57:11;;;;;;;;;;;;;;;22.13;23.50;97439.16;5075910;28;1023;-77
2022/04/19 03:59:39;;;;;;;;;;;;;;;21.56;24.25;97441.22;5058496;28;1478;-76
2022/04/19 04:02:05;;;;;;;;;;;;;;;21.36;24.62;97437.88;5042927;28;1257;-76
2022/04/19 04:04:31;;;;;;;;;;;;;;;21.13;25.01;97434.16;5058490;28;1098;-77
2022/04/19 04:06:58;;;;;;;;;;;;;;;21.51;24.59;97444.63;5059059;28;1914;-76
2022/04/19 04:09:24;;;;;;;;;;;;;;;21.84;24.09;97433.72;5058491;28;1181;-75
2022/04/19 04:11:49;;;;;;;;;;;;;;;22.10;23.73;97437.22;5058961;28;1117;-75
2022/04/19 04:14:18;;;;;;;;;;;;;;;22.11;23.70;97441.66;5059289;28;933;-76
2022/04/19 04:16:43;;;;;;;;;;;;;;;21.62;24.10;97432.91;5022362;28;1136;-76
2022/04/19 04:19:09;;;;;;;;;;;;;;;21.39;24.52;97443.38;5050719;28;1323;-76
2022/04/19 04:21:35;;;;;;;;;;;;;;;21.39;24.53;97448.25;5055522;28;1398;-76
2022/04/19 04:24:01;;;;;;;;;;;;;;;21.13;25.06;97442.63;5054713;28;1102;-76
2022/04/19 04:26:33;;;;;;;;;;;;;;;21.13;25.24;97448.28;5038424;28;1910;-76
2022/04/19 04:28:58;;;;;;;;;;;;;;;21.16;25.02;97447.38;5037957;28;1090;-78
2022/04/19 04:31:24;;;;;;;;;;;;;;;21.17;25.10;97446.13;5035539;28;1036;-77
2022/04/19 04:33:50;;;;;;;;;;;;;;;21.14;25.11;97447.06;5034366;28;1500;-78
2022/04/19 04:36:16;;;;;;;;;;;;;;;21.21;25.23;97454.50;5035008;28;1293;-77
2022/04/19 04:38:41;;;;;;;;;;;;;;;21.16;25.09;97449.44;5034625;28;1591;-77
2022/04/19 04:41:17;;;;;;;;;;;;;;;21.10;25.10;97443.56;5035168;28;1141;-77
2022/04/19 04:43:43;;;;;;;;;;;;;;;21.44;24.91;97445.63;5034291;28;1161;-77
2022/04/19 04:51:36;;;;;;;;;;;;;;;21.53;24.37;97447.78;5034645;28;1051;-78
2022/04/19 04:54:02;;;;;;;;;;;;;;;21.37;24.80;97450.78;5011617;28;1095;-78
2022/04/19 04:56:29;;;;;;;;;;;;;;;21.13;25.16;97448.28;5003698;28;1441;-78
2022/04/19 04:58:55;;;;;;;;;;;;;;;21.35;24.83;97447.59;4998071;28;1214;-77
2022/04/19 05:01:22;;;;;;;;;;;;;;;21.82;24.20;97442.69;5012555;28;1383;-77
2022/04/19 05:03:48;;;;;;;;;;;;;;;21.89;24.13;97446.50;4991450;28;1138;-78
2022/04/19 05:06:14;;;;;;;;;;;;;;;21.39;24.86;97440.56;4992320;28;1165;-78
2022/04/19 05:08:39;;;;;;;;;;;;;;;21.29;24.91;97444.53;4991409;28;1884;-78
2022/04/19 05:11:05;;;;;;;;;;;;;;;21.25;25.27;97441.84;5014959;28;1104;-78
2022/04/19 05:13:30;;;;;;;;;;;;;;;21.80;24.22;97450.84;5013932;28;1757;-78
2022/04/19 05:15:58;;;;;;;;;;;;;;;21.93;24.12;97447.16;4998082;28;1249;-76
2022/04/19 05:18:25;;;;;;;;;;;;;;;21.54;24.30;97444.47;5016867;28;1221;-78
2022/04/19 05:20:52;;;;;;;;;;;;;;;21.31;24.89;97448.53;5035682;28;1243;-76
2022/04/19 05:23:18;;;;;;;;;;;;;;;21.24;24.92;97459.25;5025913;28;1119;-78
2022/04/19 05:25:44;;;;;;;;;;;;;;;21.56;24.48;97447.66;4999346;28;1034;-78
2022/04/19 05:28:09;;;;;;;;;;;;;;;21.83;24.25;97454.81;4994346;28;1918;-78
2022/04/19 05:30:36;;;;;;;;;;;;;;;21.94;24.05;97446.69;5014575;28;1202;-78
2022/04/19 05:33:02;;;;;;;;;;;;;;;21.53;24.65;97464.75;5033328;28;1035;-77
2022/04/19 05:35:27;;;;;;;;;;;;;;;21.33;24.79;97465.81;4994198;28;1122;-77
2022/04/19 05:37:54;;;;;;;;;;;;;;;21.39;25.10;97459.59;4993936;28;1172;-78
2022/04/19 05:40:19;;;;;;;;;;;;;;;21.76;24.54;97467.19;4945764;28;1466;-75
2022/04/19 05:42:45;;;;;;;;;;;;;;;22.08;24.01;97465.22;4994479;28;1306;-77
2022/04/19 05:45:11;;;;;;;;;;;;;;;21.70;24.13;97469.00;4991152;28;1331;-77
2022/04/19 05:47:37;;;;;;;;;;;;;;;21.33;24.72;97474.31;4980864;28;1906;-78
2022/04/19 05:50:03;;;;;;;;;;;;;;;21.35;24.70;97478.72;4934380;28;1393;-78
2022/04/19 05:52:28;;;;;;;;;;;;;;;21.69;24.52;97473.09;4946101;28;1207;-77
2022/04/19 05:54:54;;;;;;;;;;;;;;;21.93;24.22;97472.66;4952423;28;1245;-78
2022/04/19 05:57:20;;;;;;;;;;;;;;;21.92;24.11;97476.75;4952827;28;1361;-78
2022/04/19 05:59:45;;;;;;;;;;;;;;;21.50;24.75;97477.81;4946320;29;1089;-77
2022/04/19 06:04:59;;;;;;;;;;;;;;;21.37;24.75;97482.69;4984527;28;1471;-77
2022/04/19 06:07:27;;;;;;;;;;;;;;;21.59;24.77;97474.25;5044258;28;1933;-78
2022/04/19 06:09:53;;;;;;;;;;;;;;;21.91;24.09;97484.44;5059804;28;1106;-77
2022/04/19 06:12:19;;;;;;;;;;;;;;;22.03;23.76;97485.66;5066943;28;1349;-76
2022/04/19 06:14:49;;;;;;;;;;;;;;;21.54;24.43;97489.78;5057695;28;1297;-77
2022/04/19 06:17:17;;;;;;;;;;;;;;;21.44;24.45;97484.47;5052341;28;1333;-78
2022/04/19 06:19:44;;;;;;;;;;;;;;;21.38;24.97;97486.31;5035901;28;1241;-78
2022/04/19 06:22:09;;;;;;;;;;;;;;;21.75;24.58;97479.75;5033049;28;1077;-76
2022/04/19 06:24:38;;;;;;;;;;;;;;;21.96;24.26;97491.56;5016176;28;1039;-78
2022/04/19 06:27:03;;;;;;;;;;;;;;;21.74;24.15;97486.66;5050002;28;1910;-77
2022/04/19 06:29:29;;;;;;;;;;;;;;;21.39;24.91;97487.88;5036328;28;1107;-78
2022/04/19 06:31:56;;;;;;;;;;;;;;;21.35;24.67;97492.88;5053112;28;1134;-78
2022/04/19 06:34:28;;;;;;;;;;;;;;;21.39;24.80;97487.88;5036012;28;1301;-77
2022/04/19 06:37:13;;;;;;;;;;;;;;;21.62;24.69;97506.53;4993779;28;1043;-77
2022/04/19 06:39:43;;;;;;;;;;;;;;;21.96;24.09;97502.88;4977566;28;2578;-78
2022/04/19 06:42:09;;;;;;;;;;;;;;;21.61;24.34;97505.75;4993638;28;1053;-77
2022/04/19 06:44:55;;;;;;;;;;;;;;;21.36;24.72;97511.44;4954535;29;987;-77
2022/04/19 06:47:25;;;;;;;;;;;;;;;21.23;25.14;97506.56;4938699;29;1995;-76
2022/04/19 06:49:52;;;;;;;;;;;;;;;21.45;24.99;97500.22;4900353;29;1101;-78
2022/04/19 06:52:19;;;;;;;;;;;;;;;21.93;24.31;97510.28;4901266;29;1203;-78
2022/04/19 06:54:44;;;;;;;;;;;;;;;21.38;24.50;97453.13;4916423;29;1407;-78
2022/04/19 06:57:10;;;;;;;;;;;;;;;21.47;24.65;97507.00;4897670;29;1237;-77
2022/04/19 06:59:35;;;;;;;;;;;;;;;21.46;24.59;97498.97;4878732;29;1169;-77
2022/04/19 07:02:01;;;;;;;;;;;;;;;21.36;24.87;97502.97;4875226;29;1024;-78
2022/04/19 07:04:32;;;;;;;;;;;;;;;21.63;24.79;97508.91;4841776;29;1121;-78
2022/04/19 07:07:03;;;;;;;;;;;;;;;22.02;23.90;97512.38;4857468;29;2041;-76
2022/04/19 07:09:29;;;;;;;;;;;;;;;22.10;23.83;97519.38;4878148;29;1034;-77
2022/04/19 07:11:57;;;;;;;;;;;;;;;21.53;24.59;97521.38;4879063;29;1256;-78
2022/04/19 07:14:26;;;;;;;;;;;;;;;21.53;24.54;97532.69;4899133;29;1146;-78
2022/04/19 07:16:58;;;;;;;;;;;;;;;21.29;25.19;97530.19;4937984;29;986;-77
2022/04/19 07:19:24;;;;;;;;;;;;;;;21.66;24.59;97524.97;4922940;29;1348;-77
2022/04/19 07:27:33;;;;;;;;;;;;;;;21.52;25.00;97512.09;4999997;28;1910;-77
2022/04/19 07:29:59;;;;;;;;;;;;;;;21.26;25.19;97508.50;4983536;28;1194;-77
2022/04/19 07:32:25;;;;;;;;;;;;;;;21.57;24.78;97516.38;4996715;28;1153;-78
2022/04/19 07:35:05;;;;;;;;;;;;;;;21.87;24.46;97529.09;4993513;28;1218;-78
2022/04/19 07:37:31;;;;;;;;;;;;;;;21.79;24.49;97525.72;5027051;28;1695;-77
2022/04/19 07:39:57;;;;;;;;;;;;;;;21.48;24.86;97525.56;5028917;28;1221;-78
2022/04/19 07:42:24;;;;;;;;;;;;;;;21.25;25.21;97529.53;5000163;28;1111;-77
2022/04/19 07:44:52;;;;;;;;;;;;;;;21.36;25.08;97523.56;5015855;28;1139;-77
2022/04/19 07:47:18;;;;;;;;;;;;;;;21.39;25.10;97524.69;5032657;28;1964;-76
2022/04/19 07:49:44;;;;;;;;;;;;;;;21.32;25.02;97523.66;4999427;28;1356;-78
2022/04/19 07:52:10;;;;;;;;;;;;;;;21.21;25.34;97522.41;5016114;28;1423;-78
2022/04/19 07:54:36;;;;;;;;;;;;;;;21.22;25.47;97530.44;5032255;28;1241;-78
2022/04/19 07:57:01;;;;;;;;;;;;;;;21.60;24.95;97529.63;5016480;28;988;-78
2022/04/19 07:59:27;;;;;;;;;;;;;;;21.86;24.31;97533.16;5015444;28;1020;-78
2022/04/19 08:01:53;;;;;;;;;;;;;;;21.95;24.45;97529.63;5030604;28;1091;-77
2022/04/19 08:04:20;;;;;;;;;;;;;;;21.53;24.89;97524.22;4992884;28;1060;-76
2022/04/19 08:06:46;;;;;;;;;;;;;;;21.40;25.15;97529.09;5015782;28;1977;-78
2022/04/19 08:09:11;;;;;;;;;;;;;;;21.33;25.17;97525.25;4999245;28;1492;-78
2022/04/19 08:11:38;;;;;;;;;;;;;;;21.69;24.77;97535.38;4999411;28;1202;-78
2022/04/19 08:14:04;;;;;;;;;;;;;;;21.88;24.52;97525.03;5015276;28;998;-77
2022/04/19 08:16:29;;;;;;;;;;;;;;;21.72;24.44;97534.47;5015842;28;1026;-77
2022/04/19 08:18:55;;;;;;;;;;;;;;;21.48;24.61;97528.41;4999147;28;1171;-78
2022/04/19 08:21:22;;;;;;;;;;;;;;;21.38;25.22;97520.28;5015115;28;1343;-78
2022/04/19 08:23:50;;;;;;;;;;;;;;;21.65;24.91;97523.38;4998566;28;1470;-77
2022/04/19 08:26:19;;;;;;;;;;;;;;;21.93;24.24;97527.28;4999221;28;1541;-77
2022/04/19 08:28:45;;;;;;;;;;;;;;;21.90;24.38;97522.50;4998088;28;1915;-77
2022/04/19 08:31:12;;;;;;;;;;;;;;;21.64;24.80;97518.97;5015626;28;1123;-78
2022/04/19 08:33:38;;;;;;;;;;;;;;;21.44;25.11;97524.09;4998433;28;1375;-77
2022/04/19 08:36:07;;;;;;;;;;;;;;;21.52;25.02;97525.47;5015539;28;1273;-77
2022/04/19 08:38:33;;;;;;;;;;;;;;;21.39;25.01;97519.03;4994848;28;1220;-77
2022/04/19 08:41:00;;;;;;;;;;;;;;;21.36;25.19;97534.09;4999385;28;1244;-78
2022/04/19 08:43:27;;;;;;;;;;;;;;;21.36;25.19;97522.78;4975367;28;1302;-78
2022/04/19 08:45:53;;;;;;;;;;;;;;;21.20;25.35;97527.28;4976373;28;937;-78
2022/04/19 08:48:18;;;;;;;;;;;;;;;21.16;25.46;97526.59;4975328;28;1971;-78
2022/04/19 08:50:46;;;;;;;;;;;;;;;21.30;25.24;97531.03;4976208;28;995;-77
2022/04/19 08:58:39;;;;;;;;;;;;;;;21.54;24.72;97529.41;4975632;28;1169;-77
2022/04/19 09:01:05;;;;;;;;;;;;;;;21.41;24.83;97531.47;4976711;28;973;-78
2022/04/19 09:03:30;;;;;;;;;;;;;;;21.23;25.22;97526.34;4994132;28;1226;-77
2022/04/19 09:05:56;;;;;;;;;;;;;;;21.22;25.34;97536.09;4995444;28;1155;-78
2022/04/19 09:08:22;;;;;;;;;;;;;;;21.72;24.42;97528.81;4994428;28;1997;-78
2022/04/19 09:10:48;;;;;;;;;;;;;;;21.98;24.18;97523.06;4995554;28;1007;-77
2022/04/19 09:13:23;;;;;;;;;;;;;;;21.59;24.47;97531.66;4994771;28;1076;-78
2022/04/19 09:15:49;;;;;;;;;;;;;;;21.44;24.78;97535.44;4995109;28;1049;-77
2022/04/19 09:18:15;;;;;;;;;;;;;;;21.20;24.99;97541.44;4955532;29;1256;-78
2022/04/19 09:20:40;;;;;;;;;;;;;;;21.72;24.65;97540.13;4964515;28;1096;-77
2022/04/19 09:23:06;;;;;;;;;;;;;;;22.01;24.06;97539.13;4977299;28;1130;-77
2022/04/19 09:25:32;;;;;;;;;;;;;;;21.72;24.40;97542.97;5014536;28;870;-78
2022/04/19 09:27:58;;;;;;;;;;;;;;;21.49;24.78;97537.69;5014358;28;1969;-77
2022/04/19 09:30:27;;;;;;;;;;;;;;;21.28;24.85;97534.28;5014259;28;945;-77
2022/04/19 09:33:02;;;;;;;;;;;;;;;21.32;25.23;97520.84;4997738;28;1010;-75
2022/04/19 09:35:31;;;;;;;;;;;;;;;21.47;25.04;97526.03;5031816;28;1029;-78
2022/04/19 09:37:57;;;;;;;;;;;;;;;21.88;24.32;97524.22;5033973;28;1004;-77
2022/04/19 09:40:29;;;;;;;;;;;;;;;21.94;23.98;97522.38;5033107;28;930;-78
2022/04/19 09:42:57;;;;;;;;;;;;;;;21.53;24.57;97527.81;5033721;28;1037;-75
2022/04/19 09:45:23;;;;;;;;;;;;;;;21.39;24.74;97538.81;5033635;28;832;-77
2022/04/19 09:47:49;;;;;;;;;;;;;;;21.43;24.74;97522.53;5033547;28;1918;-77
2022/04/19 09:50:14;;;;;;;;;;;;;;;21.76;24.62;97534.31;5033714;28;1020;-77
2022/04/19 09:52:48;;;;;;;;;;;;;;;22.05;24.08;97539.78;5033404;28;990;-77
2022/04/19 09:55:13;;;;;;;;;;;;;;;21.58;24.43;97534.94;5046488;28;907;-77
2022/04/19 09:57:39;;;;;;;;;;;;;;;21.29;25.05;97535.06;5076480;28;1180;-78
2022/04/19 10:00:06;;;;;;;;;;;;;;;21.29;25.21;97535.84;5075664;28;904;-77
2022/04/19 10:08:11;;;;;;;;;;;;;;;21.59;24.61;97542.19;5075866;28;1914;-77
2022/04/19 10:10:36;;;;;;;;;;;;;;;21.83;24.22;97546.22;5074894;28;1191;-77
2022/04/19 10:13:03;;;;;;;;;;;;;;;22.21;23.91;97536.81;5076170;28;931;-78
2022/04/19 10:15:32;;;;;;;;;;;;;;;21.60;24.67;97546.59;5056236;28;1854;-77
2022/04/19 10:17:58;;;;;;;;;;;;;;;21.35;24.77;97552.28;5075523;28;909;-78
2022/04/19 10:20:31;;;;;;;;;;;;;;;21.30;25.09;97548.81;5113820;28;999;-78
2022/04/19 10:22:56;;;;;;;;;;;;;;;21.62;24.79;97552.63;5080359;28;1539;-77
2022/04/19 10:25:22;;;;;;;;;;;;;;;21.99;23.88;97559.41;5111330;28;1082;-77
2022/04/19 10:27:49;;;;;;;;;;;;;;;21.77;24.36;97559.38;5113929;28;1902;-77
2022/04/19 10:30:20;;;;;;;;;;;;;;;21.45;24.88;97562.47;5073141;28;1096;-78
2022/04/19 10:32:46;;;;;;;;;;;;;;;21.29;24.86;97561.31;5032905;28;1267;-78
2022/04/19 10:35:13;;;;;;;;;;;;;;;21.20;25.30;97564.06;5032973;28;990;-78
2022/04/19 10:37:38;;;;;;;;;;;;;;;21.79;24.42;97561.75;5032965;28;1012;-77
2022/04/19 10:40:05;;;;;;;;;;;;;;;22.06;23.88;97569.69;5032823;28;971;-77
2022/04/19 10:42:34;;;;;;;;;;;;;;;21.61;24.59;97562.38;5033186;28;985;-78
2022/04/19 10:45:15;;;;;;;;;;;;;;;21.46;24.85;97566.91;4993416;28;965;-78
2022/04/19 10:48:03;;;;;;;;;;;;;;;21.31;24.85;97563.75;4993772;28;1902;-78
2022/04/19 10:50:29;;;;;;;;;;;;;;;21.76;24.57;97563.47;4971386;28;1081;-77
2022/04/19 10:53:03;;;;;;;;;;;;;;;22.11;23.73;97571.97;4920024;29;1138;-77
2022/04/19 10:55:38;;;;;;;;;;;;;;;21.63;24.29;97565.53;4920478;29;1081;-76
2022/04/19 10:58:09;;;;;;;;;;;;;;;21.43;24.87;97573.47;4920068;29;1151;-77
2022/04/19 11:00:35;;;;;;;;;;;;;;;21.42;24.92;97577.56;4924984;29;1021;-78
2022/04/19 11:03:01;;;;;;;;;;;;;;;21.79;24.40;97568.19;4946937;28;1044;-75
2022/04/19 11:05:36;;;;;;;;;;;;;;;22.06;23.98;97575.38;4978209;28;953;-77
2022/04/19 11:08:20;;;;;;;;;;;;;;;21.81;24.17;97571.38;4961252;28;1981;-77
2022/04/19 11:10:46;;;;;;;;;;;;;;;21.59;24.73;97571.28;4977915;28;971;-78
2022/04/19 11:13:11;;;;;;;;;;;;;;;21.31;24.76;97573.03;4977221;28;961;-78
2022/04/19 11:15:37;;;;;;;;;;;;;;;21.44;24.86;97575.06;4984346;28;1010;-77
2022/04/19 11:18:22;;;;;;;;;;;;;;;21.94;24.11;97576.22;4997192;28;1038;-78
2022/04/19 11:20:47;;;;;;;;;;;;;;;21.81;24.36;97577.06;4977734;28;1077;-78
2022/04/19 11:23:17;;;;;;;;;;;;;;;21.42;25.19;97583.22;4999944;28;1165;-78
2022/04/19 11:25:43;;;;;;;;;;;;;;;21.42;24.87;97571.91;4997131;28;989;-77
2022/04/19 11:28:11;;;;;;;;;;;;;;;21.20;25.19;97566.91;5011300;28;1906;-78
2022/04/19 11:30:49;;;;;;;;;;;;;;;21.25;25.35;97574.81;5016665;28;1029;-78
2022/04/19 11:33:21;;;;;;;;;;;;;;;21.26;25.18;97569.94;5016179;28;1182;-78
2022/04/19 11:36:00;;;;;;;;;;;;;;;21.22;25.25;97570.06;5016439;28;983;-77
2022/04/19 11:38:25;;;;;;;;;;;;;;;21.15;25.43;97567.47;5015867;28;1253;-78
2022/04/19 11:49:07;;;;;;;;;;;;;;;21.28;25.31;97568.22;4957757;28;1050;-77
2022/04/19 11:51:35;;;;;;;;;;;;;;;21.12;25.64;97562.69;4965619;28;990;-78
2022/04/19 11:54:01;;;;;;;;;;;;;;;21.51;24.99;97569.19;4992598;28;1008;-77
2022/04/19 11:56:26;;;;;;;;;;;;;;;21.88;24.65;97564.69;4977153;28;1062;-77
2022/04/19 11:58:52;;;;;;;;;;;;;;;22.08;24.01;97568.00;4976618;28;971;-78
2022/04/19 12:01:18;;;;;;;;;;;;;;;21.91;24.12;97571.44;4976814;28;1040;-77
2022/04/19 12:03:43;;;;;;;;;;;;;;;21.52;24.80;97570.75;4976205;28;1061;-77
2022/04/19 12:06:14;;;;;;;;;;;;;;;21.41;25.23;97570.31;4977725;28;1002;-78
2022/04/19 12:08:43;;;;;;;;;;;;;;;21.27;25.26;97565.88;4976259;28;1911;-78
2022/04/19 12:11:09;;;;;;;;;;;;;;;21.76;24.64;97563.47;4989094;28;1044;-78
2022/04/19 12:13:34;;;;;;;;;;;;;;;21.98;24.18;97559.88;5039141;28;1035;-76
2022/04/19 12:16:09;;;;;;;;;;;;;;;21.68;24.73;97555.66;5056137;28;978;-76
2022/04/19 12:18:38;;;;;;;;;;;;;;;21.39;25.24;97555.81;5055296;28;1018;-75
2022/04/19 12:21:04;;;;;;;;;;;;;;;21.36;25.21;97556.72;5056032;28;1052;-76
2022/04/19 12:23:30;;;;;;;;;;;;;;;21.24;25.47;97561.91;5054984;28;985;-75
2022/04/19 12:26:02;;;;;;;;;;;;;;;21.21;25.41;97568.47;5055682;28;1253;-76
2022/04/19 12:28:35;;;;;;;;;;;;;;;21.29;25.53;97564.16;5075357;28;1909;-76
2022/04/19 12:31:00;;;;;;;;;;;;;;;21.16;25.48;97565.41;5078417;28;913;-77
2022/04/19 12:33:25;;;;;;;;;;;;;;;21.27;25.64;97558.16;5077226;28;958;-76
2022/04/19 12:35:54;;;;;;;;;;;;;;;21.62;24.90;97561.13;5078097;28;915;-77
2022/04/19 12:38:27;;;;;;;;;;;;;;;21.83;24.58;97557.53;5076816;28;974;-78
2022/04/19 12:40:53;;;;;;;;;;;;;;;21.95;24.33;97553.09;5110626;28;939;-76
2022/04/19 12:43:18;;;;;;;;;;;;;;;21.39;25.46;97562.25;5077151;28;1036;-77
2022/04/19 12:45:44;;;;;;;;;;;;;;;21.30;25.38;97559.34;5078150;28;966;-77
2022/04/19 12:48:20;;;;;;;;;;;;;;;21.22;25.47;97547.41;5077181;28;1909;-77
2022/04/19 12:50:45;;;;;;;;;;;;;;;21.56;25.22;97554.44;5077460;28;923;-75
2022/04/19 12:53:21;;;;;;;;;;;;;;;21.93;24.76;97555.59;5077240;28;980;-77
2022/04/19 12:55:52;;;;;;;;;;;;;;;21.64;25.05;97550.09;5077510;28;962;-77
2022/04/19 12:58:17;;;;;;;;;;;;;;;21.36;25.25;97551.06;5077244;28;970;-77
2022/04/19 13:00:43;;;;;;;;;;;;;;;21.25;25.63;97563.50;5077316;28;977;-76
2022/04/19 13:03:08;;;;;;;;;;;;;;;21.55;25.32;97558.50;5057725;28;1554;-75
2022/04/19 13:13:46;;;;;;;;;;;;;;;21.29;25.36;97566.97;5071590;28;1465;-76
2022/04/19 13:16:11;;;;;;;;;;;;;;;21.31;25.62;97555.25;5076782;28;1493;-76
2022/04/19 13:18:37;;;;;;;;;;;;;;;21.74;25.05;97565.94;5072987;28;1459;-76
2022/04/19 13:21:03;;;;;;;;;;;;;;;21.75;24.74;97570.34;5073728;28;1557;-76
2022/04/19 13:23:29;;;;;;;;;;;;;;;21.47;25.14;97571.31;5073099;28;1542;-76
2022/04/19 13:25:54;;;;;;;;;;;;;;;21.41;25.12;97559.00;5062645;28;1656;-75
2022/04/19 13:28:22;;;;;;;;;;;;;;;21.25;25.36;97569.16;5073260;28;1983;-76
2022/04/19 13:30:48;;;;;;;;;;;;;;;21.61;25.07;97573.69;5073895;28;1541;-77
2022/04/19 13:33:14;;;;;;;;;;;;;;;21.89;24.71;97577.59;5073464;28;984;-76
2022/04/19 13:35:39;;;;;;;;;;;;;;;21.95;24.65;97574.97;5074323;28;927;-76
2022/04/19 13:38:23;;;;;;;;;;;;;;;21.58;25.14;97577.41;5073833;28;1009;-77
2022/04/19 13:40:49;;;;;;;;;;;;;;;21.35;25.36;97572.94;5074335;28;1004;-76
2022/04/19 13:43:14;;;;;;;;;;;;;;;21.15;25.85;97575.94;5051991;28;2228;-75
2022/04/19 13:45:40;;;;;;;;;;;;;;;21.36;25.45;97573.72;5052850;28;1492;-76